sensor_id;sensor_type;location;lat;lon;timestamp;P1;durP1;ratioP1;P2;durP2;ratioP2
78844;SDS011;68195;50.854;2.860;2023-06-22T00:01:21;9.82;;;6.38;;
78844;SDS011;68195;50.854;2.860;2023-06-22T00:03:47;11.73;;;6.78;;
78844;SDS011;68195;50.854;2.860;2023-06-22T00:06:13;10.65;;;6.00;;
78844;SDS011;68195;50.854;2.860;2023-06-22T00:08:38;8.30;;;6.10;;
78844;SDS011;68195;50.854;2.860;2023-06-22T00:11:03;9.68;;;6.78;;
78844;SDS011;68195;50.854;2.860;2023-06-22T00:13:31;14.52;;;6.70;;
78844;SDS011;68195;50.854;2.860;2023-06-22T00:15:57;10.82;;;7.18;;
78844;SDS011;68195;50.854;2.860;2023-06-22T00:18:22;9.18;;;6.35;;
78844;SDS011;68195;50.854;2.860;2023-06-22T00:20:52;9.63;;;6.38;;
78844;SDS011;68195;50.854;2.860;2023-06-22T00:23:22;14.25;;;6.45;;
78844;SDS011;68195;50.854;2.860;2023-06-22T00:25:48;12.00;;;6.22;;
78844;SDS011;68195;50.854;2.860;2023-06-22T00:28:16;13.50;;;6.90;;
78844;SDS011;68195;50.854;2.860;2023-06-22T00:30:44;11.60;;;6.57;;
78844;SDS011;68195;50.854;2.860;2023-06-22T00:33:10;10.77;;;6.80;;
78844;SDS011;68195;50.854;2.860;2023-06-22T00:35:41;10.73;;;6.45;;
78844;SDS011;68195;50.854;2.860;2023-06-22T00:38:07;9.48;;;6.28;;
78844;SDS011;68195;50.854;2.860;2023-06-22T00:40:34;10.23;;;6.38;;
78844;SDS011;68195;50.854;2.860;2023-06-22T00:43:00;9.90;;;6.90;;
78844;SDS011;68195;50.854;2.860;2023-06-22T00:45:26;10.55;;;6.35;;
78844;SDS011;68195;50.854;2.860;2023-06-22T00:47:54;12.85;;;6.60;;
78844;SDS011;68195;50.854;2.860;2023-06-22T00:50:25;11.52;;;6.10;;
78844;SDS011;68195;50.854;2.860;2023-06-22T00:52:53;12.15;;;7.50;;
78844;SDS011;68195;50.854;2.860;2023-06-22T00:55:22;11.80;;;7.30;;
78844;SDS011;68195;50.854;2.860;2023-06-22T00:57:47;12.70;;;7.50;;
78844;SDS011;68195;50.854;2.860;2023-06-22T01:00:14;12.48;;;7.80;;
78844;SDS011;68195;50.854;2.860;2023-06-22T01:02:44;12.15;;;7.50;;
78844;SDS011;68195;50.854;2.860;2023-06-22T01:05:17;13.40;;;7.63;;
78844;SDS011;68195;50.854;2.860;2023-06-22T01:10:57;12.73;;;7.45;;
78844;SDS011;68195;50.854;2.860;2023-06-22T01:16:26;13.55;;;7.13;;
78844;SDS011;68195;50.854;2.860;2023-06-22T01:18:55;12.43;;;7.32;;
78844;SDS011;68195;50.854;2.860;2023-06-22T01:21:23;10.85;;;6.82;;
78844;SDS011;68195;50.854;2.860;2023-06-22T01:24:09;14.13;;;7.75;;
78844;SDS011;68195;50.854;2.860;2023-06-22T01:29:39;12.85;;;8.18;;
78844;SDS011;68195;50.854;2.860;2023-06-22T01:32:05;11.38;;;7.25;;
78844;SDS011;68195;50.854;2.860;2023-06-22T01:34:35;12.48;;;7.65;;
78844;SDS011;68195;50.854;2.860;2023-06-22T01:37:05;10.68;;;7.50;;
78844;SDS011;68195;50.854;2.860;2023-06-22T01:39:32;11.65;;;7.10;;
78844;SDS011;68195;50.854;2.860;2023-06-22T01:41:58;10.40;;;6.75;;
78844;SDS011;68195;50.854;2.860;2023-06-22T01:44:25;13.75;;;8.13;;
78844;SDS011;68195;50.854;2.860;2023-06-22T01:46:53;12.70;;;6.88;;
78844;SDS011;68195;50.854;2.860;2023-06-22T01:49:19;10.35;;;7.40;;
78844;SDS011;68195;50.854;2.860;2023-06-22T01:51:45;14.15;;;7.32;;
78844;SDS011;68195;50.854;2.860;2023-06-22T01:54:11;10.05;;;6.40;;
78844;SDS011;68195;50.854;2.860;2023-06-22T01:56:36;12.85;;;6.82;;
78844;SDS011;68195;50.854;2.860;2023-06-22T02:01:53;12.07;;;7.03;;
78844;SDS011;68195;50.854;2.860;2023-06-22T02:04:46;11.65;;;6.93;;
78844;SDS011;68195;50.854;2.860;2023-06-22T02:07:17;15.88;;;7.53;;
78844;SDS011;68195;50.854;2.860;2023-06-22T02:09:46;13.40;;;7.68;;
78844;SDS011;68195;50.854;2.860;2023-06-22T02:12:17;14.68;;;7.80;;
78844;SDS011;68195;50.854;2.860;2023-06-22T02:14:48;13.40;;;7.50;;
78844;SDS011;68195;50.854;2.860;2023-06-22T02:17:17;12.35;;;7.57;;
78844;SDS011;68195;50.854;2.860;2023-06-22T02:19:42;11.55;;;7.28;;
78844;SDS011;68195;50.854;2.860;2023-06-22T02:22:13;13.35;;;7.20;;
78844;SDS011;68195;50.854;2.860;2023-06-22T02:24:38;12.93;;;8.57;;
78844;SDS011;68195;50.854;2.860;2023-06-22T02:27:04;15.05;;;7.95;;
78844;SDS011;68195;50.854;2.860;2023-06-22T02:29:34;12.30;;;7.60;;
78844;SDS011;68195;50.854;2.860;2023-06-22T02:31:59;13.45;;;7.10;;
78844;SDS011;68195;50.854;2.860;2023-06-22T02:34:27;13.57;;;6.93;;
78844;SDS011;68195;50.854;2.860;2023-06-22T02:36:54;11.27;;;6.82;;
78844;SDS011;68195;50.854;2.860;2023-06-22T02:39:22;12.35;;;7.75;;
78844;SDS011;68195;50.854;2.860;2023-06-22T02:41:49;14.25;;;7.10;;
78844;SDS011;68195;50.854;2.860;2023-06-22T02:44:16;14.13;;;7.60;;
78844;SDS011;68195;50.854;2.860;2023-06-22T02:46:42;14.10;;;7.40;;
78844;SDS011;68195;50.854;2.860;2023-06-22T02:49:07;11.32;;;7.15;;
78844;SDS011;68195;50.854;2.860;2023-06-22T02:51:37;13.32;;;7.55;;
78844;SDS011;68195;50.854;2.860;2023-06-22T02:54:04;13.25;;;7.03;;
78844;SDS011;68195;50.854;2.860;2023-06-22T02:56:30;14.75;;;7.25;;
78844;SDS011;68195;50.854;2.860;2023-06-22T02:58:58;13.27;;;7.07;;
78844;SDS011;68195;50.854;2.860;2023-06-22T03:01:29;12.55;;;6.40;;
78844;SDS011;68195;50.854;2.860;2023-06-22T03:03:58;12.52;;;7.80;;
78844;SDS011;68195;50.854;2.860;2023-06-22T03:06:24;10.80;;;8.18;;
78844;SDS011;68195;50.854;2.860;2023-06-22T03:08:58;10.25;;;6.80;;
78844;SDS011;68195;50.854;2.860;2023-06-22T03:13:52;10.52;;;6.18;;
78844;SDS011;68195;50.854;2.860;2023-06-22T03:16:18;12.45;;;7.25;;
78844;SDS011;68195;50.854;2.860;2023-06-22T03:18:44;13.45;;;7.32;;
78844;SDS011;68195;50.854;2.860;2023-06-22T03:21:10;11.57;;;8.23;;
78844;SDS011;68195;50.854;2.860;2023-06-22T03:23:35;12.98;;;7.25;;
78844;SDS011;68195;50.854;2.860;2023-06-22T03:26:01;14.98;;;8.80;;
78844;SDS011;68195;50.854;2.860;2023-06-22T03:28:29;13.75;;;7.68;;
78844;SDS011;68195;50.854;2.860;2023-06-22T03:30:57;13.77;;;7.90;;
78844;SDS011;68195;50.854;2.860;2023-06-22T03:33:23;10.50;;;7.47;;
78844;SDS011;68195;50.854;2.860;2023-06-22T03:35:49;10.98;;;6.88;;
78844;SDS011;68195;50.854;2.860;2023-06-22T03:38:15;11.50;;;7.47;;
78844;SDS011;68195;50.854;2.860;2023-06-22T03:40:41;10.07;;;6.93;;
78844;SDS011;68195;50.854;2.860;2023-06-22T03:43:11;10.65;;;7.25;;
78844;SDS011;68195;50.854;2.860;2023-06-22T03:45:36;11.05;;;7.03;;
78844;SDS011;68195;50.854;2.860;2023-06-22T03:48:02;13.13;;;7.57;;
78844;SDS011;68195;50.854;2.860;2023-06-22T03:50:30;11.88;;;6.95;;
78844;SDS011;68195;50.854;2.860;2023-06-22T03:52:55;11.38;;;7.78;;
78844;SDS011;68195;50.854;2.860;2023-06-22T03:55:26;12.02;;;7.22;;
78844;SDS011;68195;50.854;2.860;2023-06-22T03:57:54;17.35;;;7.38;;
78844;SDS011;68195;50.854;2.860;2023-06-22T04:00:22;13.43;;;8.27;;
78844;SDS011;68195;50.854;2.860;2023-06-22T04:02:50;13.68;;;8.02;;
78844;SDS011;68195;50.854;2.860;2023-06-22T04:05:16;12.52;;;8.23;;
78844;SDS011;68195;50.854;2.860;2023-06-22T04:07:44;11.93;;;7.50;;
78844;SDS011;68195;50.854;2.860;2023-06-22T04:10:09;13.38;;;7.57;;
78844;SDS011;68195;50.854;2.860;2023-06-22T04:12:35;13.00;;;7.40;;
78844;SDS011;68195;50.854;2.860;2023-06-22T04:15:03;13.95;;;8.38;;
78844;SDS011;68195;50.854;2.860;2023-06-22T04:17:31;15.63;;;7.65;;
78844;SDS011;68195;50.854;2.860;2023-06-22T04:19:56;16.13;;;7.85;;
78844;SDS011;68195;50.854;2.860;2023-06-22T04:22:26;16.33;;;8.18;;
78844;SDS011;68195;50.854;2.860;2023-06-22T04:24:54;12.30;;;7.53;;
78844;SDS011;68195;50.854;2.860;2023-06-22T04:27:22;15.45;;;8.75;;
78844;SDS011;68195;50.854;2.860;2023-06-22T04:29:48;12.05;;;6.65;;
78844;SDS011;68195;50.854;2.860;2023-06-22T04:32:18;14.05;;;7.43;;
78844;SDS011;68195;50.854;2.860;2023-06-22T04:34:46;11.10;;;7.90;;
78844;SDS011;68195;50.854;2.860;2023-06-22T04:37:12;13.55;;;7.38;;
78844;SDS011;68195;50.854;2.860;2023-06-22T04:39:40;16.55;;;7.68;;
78844;SDS011;68195;50.854;2.860;2023-06-22T04:42:08;12.98;;;7.45;;
78844;SDS011;68195;50.854;2.860;2023-06-22T04:44:34;12.15;;;8.38;;
78844;SDS011;68195;50.854;2.860;2023-06-22T04:47:01;12.93;;;8.30;;
78844;SDS011;68195;50.854;2.860;2023-06-22T04:49:28;11.48;;;7.28;;
78844;SDS011;68195;50.854;2.860;2023-06-22T04:51:59;12.73;;;8.35;;
78844;SDS011;68195;50.854;2.860;2023-06-22T04:54:25;14.68;;;8.43;;
78844;SDS011;68195;50.854;2.860;2023-06-22T04:56:51;14.82;;;9.43;;
78844;SDS011;68195;50.854;2.860;2023-06-22T04:59:25;13.63;;;8.40;;
78844;SDS011;68195;50.854;2.860;2023-06-22T05:01:57;13.18;;;8.07;;
78844;SDS011;68195;50.854;2.860;2023-06-22T05:04:24;15.98;;;8.38;;
78844;SDS011;68195;50.854;2.860;2023-06-22T05:06:50;17.33;;;8.25;;
78844;SDS011;68195;50.854;2.860;2023-06-22T05:09:19;12.45;;;8.20;;
78844;SDS011;68195;50.854;2.860;2023-06-22T05:11:48;15.93;;;8.30;;
78844;SDS011;68195;50.854;2.860;2023-06-22T05:14:14;15.18;;;8.20;;
78844;SDS011;68195;50.854;2.860;2023-06-22T05:16:42;14.88;;;7.53;;
78844;SDS011;68195;50.854;2.860;2023-06-22T05:19:10;17.45;;;7.55;;
78844;SDS011;68195;50.854;2.860;2023-06-22T05:21:38;13.65;;;8.30;;
78844;SDS011;68195;50.854;2.860;2023-06-22T05:24:04;12.95;;;10.00;;
78844;SDS011;68195;50.854;2.860;2023-06-22T05:26:32;15.18;;;9.82;;
78844;SDS011;68195;50.854;2.860;2023-06-22T05:29:02;13.75;;;9.27;;
78844;SDS011;68195;50.854;2.860;2023-06-22T05:31:28;12.15;;;8.60;;
78844;SDS011;68195;50.854;2.860;2023-06-22T05:33:53;15.95;;;8.55;;
78844;SDS011;68195;50.854;2.860;2023-06-22T05:36:20;12.40;;;6.70;;
78844;SDS011;68195;50.854;2.860;2023-06-22T05:38:46;10.75;;;6.10;;
78844;SDS011;68195;50.854;2.860;2023-06-22T05:41:12;10.15;;;5.63;;
78844;SDS011;68195;50.854;2.860;2023-06-22T05:43:39;10.45;;;5.28;;
78844;SDS011;68195;50.854;2.860;2023-06-22T05:46:07;9.50;;;5.82;;
78844;SDS011;68195;50.854;2.860;2023-06-22T05:48:35;9.95;;;6.78;;
78844;SDS011;68195;50.854;2.860;2023-06-22T05:51:00;9.48;;;6.18;;
78844;SDS011;68195;50.854;2.860;2023-06-22T05:53:26;11.65;;;5.75;;
78844;SDS011;68195;50.854;2.860;2023-06-22T05:55:51;11.07;;;5.05;;
78844;SDS011;68195;50.854;2.860;2023-06-22T05:58:17;10.35;;;5.95;;
78844;SDS011;68195;50.854;2.860;2023-06-22T06:00:42;9.68;;;5.78;;
78844;SDS011;68195;50.854;2.860;2023-06-22T06:03:15;11.63;;;5.97;;
78844;SDS011;68195;50.854;2.860;2023-06-22T06:05:41;10.27;;;5.85;;
78844;SDS011;68195;50.854;2.860;2023-06-22T06:08:10;10.55;;;5.63;;
78844;SDS011;68195;50.854;2.860;2023-06-22T06:10:38;9.30;;;6.03;;
78844;SDS011;68195;50.854;2.860;2023-06-22T06:13:04;9.65;;;5.60;;
78844;SDS011;68195;50.854;2.860;2023-06-22T06:15:32;9.10;;;6.13;;
78844;SDS011;68195;50.854;2.860;2023-06-22T06:17:58;10.57;;;5.30;;
78844;SDS011;68195;50.854;2.860;2023-06-22T06:20:24;11.13;;;5.68;;
78844;SDS011;68195;50.854;2.860;2023-06-22T06:22:53;11.52;;;6.07;;
78844;SDS011;68195;50.854;2.860;2023-06-22T06:25:23;8.95;;;6.38;;
78844;SDS011;68195;50.854;2.860;2023-06-22T06:27:49;8.95;;;6.00;;
78844;SDS011;68195;50.854;2.860;2023-06-22T06:30:15;9.20;;;5.35;;
78844;SDS011;68195;50.854;2.860;2023-06-22T06:32:44;11.07;;;5.40;;
78844;SDS011;68195;50.854;2.860;2023-06-22T06:35:13;9.65;;;5.70;;
78844;SDS011;68195;50.854;2.860;2023-06-22T06:37:44;10.07;;;5.80;;
78844;SDS011;68195;50.854;2.860;2023-06-22T06:40:13;9.13;;;5.45;;
78844;SDS011;68195;50.854;2.860;2023-06-22T06:42:41;11.57;;;6.05;;
78844;SDS011;68195;50.854;2.860;2023-06-22T06:45:15;9.48;;;5.65;;
78844;SDS011;68195;50.854;2.860;2023-06-22T06:47:45;8.30;;;5.38;;
78844;SDS011;68195;50.854;2.860;2023-06-22T06:50:13;6.88;;;4.93;;
78844;SDS011;68195;50.854;2.860;2023-06-22T06:52:39;8.43;;;5.75;;
78844;SDS011;68195;50.854;2.860;2023-06-22T06:55:04;9.07;;;5.80;;
78844;SDS011;68195;50.854;2.860;2023-06-22T06:57:34;8.25;;;5.68;;
78844;SDS011;68195;50.854;2.860;2023-06-22T07:00:02;9.05;;;5.05;;
78844;SDS011;68195;50.854;2.860;2023-06-22T07:02:32;10.55;;;6.43;;
78844;SDS011;68195;50.854;2.860;2023-06-22T07:05:02;10.05;;;7.45;;
78844;SDS011;68195;50.854;2.860;2023-06-22T07:07:30;11.38;;;6.85;;
78844;SDS011;68195;50.854;2.860;2023-06-22T07:09:56;11.40;;;7.30;;
78844;SDS011;68195;50.854;2.860;2023-06-22T07:12:27;10.93;;;8.27;;
78844;SDS011;68195;50.854;2.860;2023-06-22T07:14:56;10.38;;;7.40;;
78844;SDS011;68195;50.854;2.860;2023-06-22T07:17:28;10.60;;;7.32;;
78844;SDS011;68195;50.854;2.860;2023-06-22T07:19:54;10.05;;;6.63;;
78844;SDS011;68195;50.854;2.860;2023-06-22T07:22:22;10.10;;;6.32;;
78844;SDS011;68195;50.854;2.860;2023-06-22T07:24:47;10.20;;;6.75;;
78844;SDS011;68195;50.854;2.860;2023-06-22T07:27:12;7.53;;;5.70;;
78844;SDS011;68195;50.854;2.860;2023-06-22T07:29:40;9.65;;;6.78;;
78844;SDS011;68195;50.854;2.860;2023-06-22T07:32:08;10.65;;;6.38;;
78844;SDS011;68195;50.854;2.860;2023-06-22T07:34:34;9.90;;;6.53;;
78844;SDS011;68195;50.854;2.860;2023-06-22T07:36:59;10.63;;;7.22;;
78844;SDS011;68195;50.854;2.860;2023-06-22T07:39:25;10.35;;;6.93;;
78844;SDS011;68195;50.854;2.860;2023-06-22T07:41:54;8.15;;;6.43;;
78844;SDS011;68195;50.854;2.860;2023-06-22T07:44:24;11.52;;;7.50;;
78844;SDS011;68195;50.854;2.860;2023-06-22T07:46:49;11.07;;;7.07;;
78844;SDS011;68195;50.854;2.860;2023-06-22T07:49:15;9.07;;;6.47;;
78844;SDS011;68195;50.854;2.860;2023-06-22T07:51:41;9.35;;;7.03;;
78844;SDS011;68195;50.854;2.860;2023-06-22T07:54:11;11.32;;;7.43;;
78844;SDS011;68195;50.854;2.860;2023-06-22T07:56:37;12.88;;;7.20;;
78844;SDS011;68195;50.854;2.860;2023-06-22T07:59:04;9.35;;;6.55;;
78844;SDS011;68195;50.854;2.860;2023-06-22T08:01:30;8.38;;;6.05;;
78844;SDS011;68195;50.854;2.860;2023-06-22T08:04:00;11.25;;;6.70;;
78844;SDS011;68195;50.854;2.860;2023-06-22T08:06:25;9.27;;;6.40;;
78844;SDS011;68195;50.854;2.860;2023-06-22T08:08:53;10.10;;;7.05;;
78844;SDS011;68195;50.854;2.860;2023-06-22T08:11:22;9.55;;;6.07;;
78844;SDS011;68195;50.854;2.860;2023-06-22T08:13:48;9.15;;;6.25;;
78844;SDS011;68195;50.854;2.860;2023-06-22T08:16:14;8.38;;;5.85;;
78844;SDS011;68195;50.854;2.860;2023-06-22T08:18:43;11.00;;;6.93;;
78844;SDS011;68195;50.854;2.860;2023-06-22T08:21:08;9.75;;;6.30;;
78844;SDS011;68195;50.854;2.860;2023-06-22T08:23:33;9.98;;;6.30;;
78844;SDS011;68195;50.854;2.860;2023-06-22T08:25:59;10.70;;;6.20;;
78844;SDS011;68195;50.854;2.860;2023-06-22T08:28:25;10.23;;;6.65;;
78844;SDS011;68195;50.854;2.860;2023-06-22T08:30:52;9.27;;;5.97;;
78844;SDS011;68195;50.854;2.860;2023-06-22T08:33:20;9.40;;;5.85;;
78844;SDS011;68195;50.854;2.860;2023-06-22T08:35:49;9.00;;;5.88;;
78844;SDS011;68195;50.854;2.860;2023-06-22T08:38:19;10.25;;;6.57;;
78844;SDS011;68195;50.854;2.860;2023-06-22T08:40:44;9.65;;;6.47;;
78844;SDS011;68195;50.854;2.860;2023-06-22T08:43:09;10.57;;;6.90;;
78844;SDS011;68195;50.854;2.860;2023-06-22T08:45:35;9.45;;;5.57;;
78844;SDS011;68195;50.854;2.860;2023-06-22T08:48:00;10.05;;;6.25;;
78844;SDS011;68195;50.854;2.860;2023-06-22T08:50:26;7.97;;;5.95;;
78844;SDS011;68195;50.854;2.860;2023-06-22T08:52:51;13.38;;;5.72;;
78844;SDS011;68195;50.854;2.860;2023-06-22T08:55:17;9.73;;;6.10;;
78844;SDS011;68195;50.854;2.860;2023-06-22T08:57:45;9.50;;;6.03;;
78844;SDS011;68195;50.854;2.860;2023-06-22T09:00:10;10.68;;;6.63;;
78844;SDS011;68195;50.854;2.860;2023-06-22T09:02:44;13.02;;;7.20;;
78844;SDS011;68195;50.854;2.860;2023-06-22T09:05:12;10.00;;;5.97;;
78844;SDS011;68195;50.854;2.860;2023-06-22T09:07:40;11.10;;;7.38;;
78844;SDS011;68195;50.854;2.860;2023-06-22T09:10:05;10.70;;;6.38;;
78844;SDS011;68195;50.854;2.860;2023-06-22T09:12:32;9.95;;;6.25;;
78844;SDS011;68195;50.854;2.860;2023-06-22T09:15:01;8.52;;;6.25;;
78844;SDS011;68195;50.854;2.860;2023-06-22T09:17:30;9.02;;;6.32;;
78844;SDS011;68195;50.854;2.860;2023-06-22T09:19:56;10.82;;;6.18;;
78844;SDS011;68195;50.854;2.860;2023-06-22T09:22:27;12.40;;;6.30;;
78844;SDS011;68195;50.854;2.860;2023-06-22T09:24:54;10.57;;;7.15;;
78844;SDS011;68195;50.854;2.860;2023-06-22T09:27:23;9.85;;;6.60;;
78844;SDS011;68195;50.854;2.860;2023-06-22T09:29:51;7.60;;;5.93;;
78844;SDS011;68195;50.854;2.860;2023-06-22T09:32:16;11.30;;;6.75;;
78844;SDS011;68195;50.854;2.860;2023-06-22T09:34:44;10.02;;;6.68;;
78844;SDS011;68195;50.854;2.860;2023-06-22T09:37:09;9.68;;;6.15;;
78844;SDS011;68195;50.854;2.860;2023-06-22T09:39:40;10.60;;;5.88;;
78844;SDS011;68195;50.854;2.860;2023-06-22T09:42:05;11.65;;;7.05;;
78844;SDS011;68195;50.854;2.860;2023-06-22T09:44:31;9.85;;;6.38;;
78844;SDS011;68195;50.854;2.860;2023-06-22T09:46:56;11.38;;;6.45;;
78844;SDS011;68195;50.854;2.860;2023-06-22T09:49:22;12.57;;;6.85;;
78844;SDS011;68195;50.854;2.860;2023-06-22T09:51:47;8.85;;;6.45;;
78844;SDS011;68195;50.854;2.860;2023-06-22T09:54:14;11.02;;;6.53;;
78844;SDS011;68195;50.854;2.860;2023-06-22T09:56:45;11.50;;;7.13;;
78844;SDS011;68195;50.854;2.860;2023-06-22T09:59:12;11.18;;;6.57;;
78844;SDS011;68195;50.854;2.860;2023-06-22T10:01:38;9.88;;;6.57;;
78844;SDS011;68195;50.854;2.860;2023-06-22T10:04:03;10.63;;;7.00;;
78844;SDS011;68195;50.854;2.860;2023-06-22T10:06:31;10.05;;;6.47;;
78844;SDS011;68195;50.854;2.860;2023-06-22T10:08:56;12.18;;;6.80;;
78844;SDS011;68195;50.854;2.860;2023-06-22T10:11:21;9.30;;;6.93;;
78844;SDS011;68195;50.854;2.860;2023-06-22T10:13:54;10.70;;;6.63;;
78844;SDS011;68195;50.854;2.860;2023-06-22T10:16:19;10.95;;;7.13;;
78844;SDS011;68195;50.854;2.860;2023-06-22T10:18:45;9.65;;;7.18;;
78844;SDS011;68195;50.854;2.860;2023-06-22T10:21:10;10.57;;;7.57;;
78844;SDS011;68195;50.854;2.860;2023-06-22T10:23:38;12.32;;;7.55;;
78844;SDS011;68195;50.854;2.860;2023-06-22T10:26:04;11.88;;;7.28;;
78844;SDS011;68195;50.854;2.860;2023-06-22T10:28:31;11.10;;;8.05;;
78844;SDS011;68195;50.854;2.860;2023-06-22T10:30:59;11.70;;;7.97;;
78844;SDS011;68195;50.854;2.860;2023-06-22T10:33:24;12.68;;;8.32;;
78844;SDS011;68195;50.854;2.860;2023-06-22T10:35:50;11.93;;;9.05;;
78844;SDS011;68195;50.854;2.860;2023-06-22T10:38:15;12.27;;;8.32;;
78844;SDS011;68195;50.854;2.860;2023-06-22T10:40:41;12.07;;;8.55;;
78844;SDS011;68195;50.854;2.860;2023-06-22T10:43:06;13.25;;;8.25;;
78844;SDS011;68195;50.854;2.860;2023-06-22T10:45:34;12.15;;;8.98;;
78844;SDS011;68195;50.854;2.860;2023-06-22T10:48:02;13.50;;;9.32;;
78844;SDS011;68195;50.854;2.860;2023-06-22T10:50:27;13.13;;;9.63;;
78844;SDS011;68195;50.854;2.860;2023-06-22T10:52:55;15.13;;;9.55;;
78844;SDS011;68195;50.854;2.860;2023-06-22T10:55:25;17.55;;;10.15;;
78844;SDS011;68195;50.854;2.860;2023-06-22T10:57:53;15.73;;;10.05;;
78844;SDS011;68195;50.854;2.860;2023-06-22T11:00:21;17.27;;;10.93;;
78844;SDS011;68195;50.854;2.860;2023-06-22T11:02:53;15.00;;;10.48;;
78844;SDS011;68195;50.854;2.860;2023-06-22T11:05:19;16.08;;;10.40;;
78844;SDS011;68195;50.854;2.860;2023-06-22T11:07:44;12.88;;;9.90;;
78844;SDS011;68195;50.854;2.860;2023-06-22T11:10:13;15.82;;;11.45;;
78844;SDS011;68195;50.854;2.860;2023-06-22T11:12:43;15.95;;;11.55;;
78844;SDS011;68195;50.854;2.860;2023-06-22T11:15:09;15.27;;;11.52;;
78844;SDS011;68195;50.854;2.860;2023-06-22T11:17:37;19.63;;;12.43;;
78844;SDS011;68195;50.854;2.860;2023-06-22T11:20:02;16.33;;;11.25;;
78844;SDS011;68195;50.854;2.860;2023-06-22T11:22:40;20.02;;;11.68;;
78844;SDS011;68195;50.854;2.860;2023-06-22T11:25:05;17.25;;;11.55;;
78844;SDS011;68195;50.854;2.860;2023-06-22T11:27:32;18.88;;;12.70;;
78844;SDS011;68195;50.854;2.860;2023-06-22T11:29:57;21.17;;;13.20;;
78844;SDS011;68195;50.854;2.860;2023-06-22T11:32:28;19.48;;;14.13;;
78844;SDS011;68195;50.854;2.860;2023-06-22T11:34:56;21.05;;;14.95;;
78844;SDS011;68195;50.854;2.860;2023-06-22T11:37:23;23.40;;;14.60;;
78844;SDS011;68195;50.854;2.860;2023-06-22T11:39:51;22.17;;;13.25;;
78844;SDS011;68195;50.854;2.860;2023-06-22T11:42:20;20.33;;;14.13;;
78844;SDS011;68195;50.854;2.860;2023-06-22T11:44:50;20.15;;;14.20;;
78844;SDS011;68195;50.854;2.860;2023-06-22T11:47:18;22.00;;;14.98;;
78844;SDS011;68195;50.854;2.860;2023-06-22T11:49:43;21.88;;;15.30;;
78844;SDS011;68195;50.854;2.860;2023-06-22T11:52:09;22.15;;;16.05;;
78844;SDS011;68195;50.854;2.860;2023-06-22T11:54:34;22.15;;;14.77;;
78844;SDS011;68195;50.854;2.860;2023-06-22T11:57:02;20.52;;;15.23;;
78844;SDS011;68195;50.854;2.860;2023-06-22T11:59:30;25.08;;;15.55;;
78844;SDS011;68195;50.854;2.860;2023-06-22T12:01:56;23.15;;;15.35;;
78844;SDS011;68195;50.854;2.860;2023-06-22T12:04:23;20.55;;;14.80;;
78844;SDS011;68195;50.854;2.860;2023-06-22T12:06:50;20.25;;;13.90;;
78844;SDS011;68195;50.854;2.860;2023-06-22T12:09:18;18.50;;;14.02;;
78844;SDS011;68195;50.854;2.860;2023-06-22T12:11:46;20.48;;;14.30;;
78844;SDS011;68195;50.854;2.860;2023-06-22T12:14:11;21.60;;;14.90;;
78844;SDS011;68195;50.854;2.860;2023-06-22T12:16:37;21.20;;;13.95;;
78844;SDS011;68195;50.854;2.860;2023-06-22T12:19:02;24.55;;;16.63;;
78844;SDS011;68195;50.854;2.860;2023-06-22T12:21:28;23.40;;;14.63;;
78844;SDS011;68195;50.854;2.860;2023-06-22T12:23:54;23.25;;;14.48;;
78844;SDS011;68195;50.854;2.860;2023-06-22T12:26:19;24.02;;;15.38;;
78844;SDS011;68195;50.854;2.860;2023-06-22T12:28:47;20.88;;;14.32;;
78844;SDS011;68195;50.854;2.860;2023-06-22T12:31:12;24.83;;;14.75;;
78844;SDS011;68195;50.854;2.860;2023-06-22T12:33:38;23.67;;;15.00;;
78844;SDS011;68195;50.854;2.860;2023-06-22T12:36:03;22.90;;;15.15;;
78844;SDS011;68195;50.854;2.860;2023-06-22T12:38:30;25.27;;;15.57;;
78844;SDS011;68195;50.854;2.860;2023-06-22T12:40:55;26.40;;;15.40;;
78844;SDS011;68195;50.854;2.860;2023-06-22T12:43:20;22.25;;;14.48;;
78844;SDS011;68195;50.854;2.860;2023-06-22T12:45:46;26.08;;;14.75;;
78844;SDS011;68195;50.854;2.860;2023-06-22T12:48:13;19.83;;;13.35;;
78844;SDS011;68195;50.854;2.860;2023-06-22T12:50:39;20.08;;;15.18;;
78844;SDS011;68195;50.854;2.860;2023-06-22T12:53:05;21.13;;;13.30;;
78844;SDS011;68195;50.854;2.860;2023-06-22T12:55:31;21.67;;;13.20;;
78844;SDS011;68195;50.854;2.860;2023-06-22T12:57:57;22.58;;;14.00;;
78844;SDS011;68195;50.854;2.860;2023-06-22T13:00:25;21.73;;;13.68;;
78844;SDS011;68195;50.854;2.860;2023-06-22T13:02:53;21.30;;;13.95;;
78844;SDS011;68195;50.854;2.860;2023-06-22T13:05:23;19.70;;;12.73;;
78844;SDS011;68195;50.854;2.860;2023-06-22T13:07:48;20.52;;;13.23;;
78844;SDS011;68195;50.854;2.860;2023-06-22T13:10:16;20.50;;;13.27;;
78844;SDS011;68195;50.854;2.860;2023-06-22T13:12:43;20.20;;;13.95;;
78844;SDS011;68195;50.854;2.860;2023-06-22T13:15:09;22.17;;;13.95;;
78844;SDS011;68195;50.854;2.860;2023-06-22T13:17:34;23.42;;;14.38;;
78844;SDS011;68195;50.854;2.860;2023-06-22T13:20:00;19.65;;;13.85;;
78844;SDS011;68195;50.854;2.860;2023-06-22T13:22:29;23.08;;;14.23;;
78844;SDS011;68195;50.854;2.860;2023-06-22T13:24:59;23.95;;;13.65;;
78844;SDS011;68195;50.854;2.860;2023-06-22T13:27:25;21.67;;;13.88;;
78844;SDS011;68195;50.854;2.860;2023-06-22T13:29:53;21.85;;;13.90;;
78844;SDS011;68195;50.854;2.860;2023-06-22T13:32:19;20.88;;;14.50;;
78844;SDS011;68195;50.854;2.860;2023-06-22T13:34:44;19.48;;;13.65;;
78844;SDS011;68195;50.854;2.860;2023-06-22T13:37:10;21.50;;;13.93;;
78844;SDS011;68195;50.854;2.860;2023-06-22T13:39:37;20.10;;;12.32;;
78844;SDS011;68195;50.854;2.860;2023-06-22T13:42:05;19.55;;;13.15;;
78844;SDS011;68195;50.854;2.860;2023-06-22T13:44:31;20.27;;;13.80;;
78844;SDS011;68195;50.854;2.860;2023-06-22T13:46:56;17.13;;;12.13;;
78844;SDS011;68195;50.854;2.860;2023-06-22T13:49:24;19.73;;;12.85;;
78844;SDS011;68195;50.854;2.860;2023-06-22T13:51:50;20.08;;;13.80;;
78844;SDS011;68195;50.854;2.860;2023-06-22T13:54:16;17.67;;;11.90;;
78844;SDS011;68195;50.854;2.860;2023-06-22T13:56:41;18.65;;;12.43;;
78844;SDS011;68195;50.854;2.860;2023-06-22T13:59:07;17.63;;;12.23;;
78844;SDS011;68195;50.854;2.860;2023-06-22T14:01:34;18.42;;;12.20;;
78844;SDS011;68195;50.854;2.860;2023-06-22T14:04:00;17.35;;;12.27;;
78844;SDS011;68195;50.854;2.860;2023-06-22T14:06:33;22.58;;;11.20;;
78844;SDS011;68195;50.854;2.860;2023-06-22T14:08:58;17.35;;;12.30;;
78844;SDS011;68195;50.854;2.860;2023-06-22T14:11:24;18.10;;;12.73;;
78844;SDS011;68195;50.854;2.860;2023-06-22T14:13:50;16.13;;;11.25;;
78844;SDS011;68195;50.854;2.860;2023-06-22T14:16:18;15.80;;;10.45;;
78844;SDS011;68195;50.854;2.860;2023-06-22T14:18:44;16.92;;;10.50;;
78844;SDS011;68195;50.854;2.860;2023-06-22T14:21:12;17.00;;;11.48;;
78844;SDS011;68195;50.854;2.860;2023-06-22T14:23:40;17.48;;;11.50;;
78844;SDS011;68195;50.854;2.860;2023-06-22T14:26:06;18.38;;;12.40;;
78844;SDS011;68195;50.854;2.860;2023-06-22T14:28:33;17.80;;;11.57;;
78844;SDS011;68195;50.854;2.860;2023-06-22T14:30:59;15.32;;;11.05;;
78844;SDS011;68195;50.854;2.860;2023-06-22T14:33:24;18.48;;;10.70;;
78844;SDS011;68195;50.854;2.860;2023-06-22T14:35:50;13.35;;;9.10;;
78844;SDS011;68195;50.854;2.860;2023-06-22T14:38:15;12.77;;;9.73;;
78844;SDS011;68195;50.854;2.860;2023-06-22T14:40:46;15.30;;;10.98;;
78844;SDS011;68195;50.854;2.860;2023-06-22T14:43:11;15.00;;;10.27;;
78844;SDS011;68195;50.854;2.860;2023-06-22T14:45:37;17.67;;;11.50;;
78844;SDS011;68195;50.854;2.860;2023-06-22T14:48:02;16.17;;;11.38;;